首页
METAR-TAF:

METAR-TAF

机场 :

石油平台

Ula, 挪威

纬度: 59-06-39N, 经度: 2-50-45E, 海拔: 0米

当前天气观测

该预报发布于25分钟前的03:20 UTC
风速13节,风向西
温度 6°C
湿度 61%
气压 998 hPa
能见度10公里或以上

METAR: ENLA 140320Z AUTO 28013KT 9999NDV FEW033/// 06/M01 Q0998 W///S3

时间: 04:45 (03:45 UTC)


TAF: 丢失

超过4000个机场的气象观测和天气预报(METAR&TAF报告)。

可查询的气象台以黄色和红色小点在地图上表示。

将鼠标移到小点上方,可查看气象台名称。

然后点击查看天气观测和预报。

如需切换地图:点击带黑十字的绿色按钮放大地图;点击带横线的绿色按钮缩小地图;或者点击绿色箭头查看邻近地区的地图。


METAR-TAF: